sensor_id;sensor_type;location;lat;lon;timestamp;temperature;humidity
26408;DHT22;14583;43.604;1.364;2022-08-11T00:00:14;29.50;74.60
26408;DHT22;14583;43.604;1.364;2022-08-11T00:02:47;29.40;74.40
26408;DHT22;14583;43.604;1.364;2022-08-11T00:05:17;29.50;73.20
26408;DHT22;14583;43.604;1.364;2022-08-11T00:10:13;29.70;72.00
26408;DHT22;14583;43.604;1.364;2022-08-11T00:12:41;29.80;72.20
26408;DHT22;14583;43.604;1.364;2022-08-11T00:15:09;29.80;72.00
26408;DHT22;14583;43.604;1.364;2022-08-11T00:17:35;29.60;71.40
26408;DHT22;14583;43.604;1.364;2022-08-11T00:20:05;29.60;70.70
26408;DHT22;14583;43.604;1.364;2022-08-11T00:22:32;29.70;70.50
26408;DHT22;14583;43.604;1.364;2022-08-11T00:24:59;29.60;70.60
26408;DHT22;14583;43.604;1.364;2022-08-11T00:27:37;29.50;71.00
26408;DHT22;14583;43.604;1.364;2022-08-11T00:30:05;29.50;71.30
26408;DHT22;14583;43.604;1.364;2022-08-11T00:32:32;29.50;71.20
26408;DHT22;14583;43.604;1.364;2022-08-11T00:35:00;29.50;71.00
26408;DHT22;14583;43.604;1.364;2022-08-11T00:37:27;29.40;72.50
26408;DHT22;14583;43.604;1.364;2022-08-11T00:39:55;29.30;72.10
26408;DHT22;14583;43.604;1.364;2022-08-11T00:44:52;29.10;74.10
26408;DHT22;14583;43.604;1.364;2022-08-11T00:47:53;29.30;72.70
26408;DHT22;14583;43.604;1.364;2022-08-11T00:50:48;29.30;73.20
26408;DHT22;14583;43.604;1.364;2022-08-11T01:07:06;29.30;74.70
26408;DHT22;14583;43.604;1.364;2022-08-11T01:41:25;29.30;76.90
26408;DHT22;14583;43.604;1.364;2022-08-11T01:44:33;29.20;78.70
26408;DHT22;14583;43.604;1.364;2022-08-11T01:52:47;29.20;79.50
26408;DHT22;14583;43.604;1.364;2022-08-11T01:55:27;29.20;79.30
26408;DHT22;14583;43.604;1.364;2022-08-11T01:58:11;29.10;81.90
26408;DHT22;14583;43.604;1.364;2022-08-11T02:03:58;29.10;81.00
26408;DHT22;14583;43.604;1.364;2022-08-11T02:11:49;29.00;83.70
26408;DHT22;14583;43.604;1.364;2022-08-11T02:14:38;28.90;84.20
26408;DHT22;14583;43.604;1.364;2022-08-11T02:23:28;28.90;84.80
26408;DHT22;14583;43.604;1.364;2022-08-11T02:26:15;28.90;84.30
26408;DHT22;14583;43.604;1.364;2022-08-11T02:34:50;28.90;86.80
26408;DHT22;14583;43.604;1.364;2022-08-11T02:45:46;28.90;90.30
26408;DHT22;14583;43.604;1.364;2022-08-11T02:48:41;28.90;87.60
26408;DHT22;14583;43.604;1.364;2022-08-11T02:54:10;29.00;90.00
26408;DHT22;14583;43.604;1.364;2022-08-11T02:59:25;28.90;90.00
26408;DHT22;14583;43.604;1.364;2022-08-11T03:02:15;29.00;88.80
26408;DHT22;14583;43.604;1.364;2022-08-11T03:13:33;28.80;92.60
26408;DHT22;14583;43.604;1.364;2022-08-11T03:16:34;28.80;93.10
26408;DHT22;14583;43.604;1.364;2022-08-11T03:30:16;28.50;95.60
26408;DHT22;14583;43.604;1.364;2022-08-11T03:50:31;28.20;98.10
26408;DHT22;14583;43.604;1.364;2022-08-11T04:01:47;28.60;97.70
26408;DHT22;14583;43.604;1.364;2022-08-11T04:30:11;28.60;99.90
26408;DHT22;14583;43.604;1.364;2022-08-11T04:33:01;28.50;98.90
26408;DHT22;14583;43.604;1.364;2022-08-11T04:35:49;28.60;98.80
26408;DHT22;14583;43.604;1.364;2022-08-11T04:46:52;28.50;99.90
26408;DHT22;14583;43.604;1.364;2022-08-11T04:52:33;28.50;99.90
26408;DHT22;14583;43.604;1.364;2022-08-11T05:04:49;28.30;99.90
26408;DHT22;14583;43.604;1.364;2022-08-11T05:13:07;28.10;99.90
26408;DHT22;14583;43.604;1.364;2022-08-11T05:15:58;28.10;99.90
26408;DHT22;14583;43.604;1.364;2022-08-11T05:18:48;28.00;99.90
26408;DHT22;14583;43.604;1.364;2022-08-11T05:21:34;28.40;99.90
26408;DHT22;14583;43.604;1.364;2022-08-11T05:24:44;28.40;99.90
26408;DHT22;14583;43.604;1.364;2022-08-11T05:30:45;28.50;99.90
26408;DHT22;14583;43.604;1.364;2022-08-11T05:33:34;28.30;99.90
26408;DHT22;14583;43.604;1.364;2022-08-11T05:36:56;28.40;99.90
26408;DHT22;14583;43.604;1.364;2022-08-11T05:39:27;28.40;99.90
26408;DHT22;14583;43.604;1.364;2022-08-11T05:42:15;28.50;99.90
26408;DHT22;14583;43.604;1.364;2022-08-11T05:45:12;28.40;99.90
26408;DHT22;14583;43.604;1.364;2022-08-11T05:47:58;28.30;99.90
26408;DHT22;14583;43.604;1.364;2022-08-11T05:50:56;28.50;99.90
26408;DHT22;14583;43.604;1.364;2022-08-11T05:53:59;28.40;99.90
26408;DHT22;14583;43.604;1.364;2022-08-11T05:56:51;28.30;99.90
26408;DHT22;14583;43.604;1.364;2022-08-11T05:59:22;28.40;99.90
26408;DHT22;14583;43.604;1.364;2022-08-11T06:01:49;28.50;99.90
26408;DHT22;14583;43.604;1.364;2022-08-11T06:04:21;28.40;99.90
26408;DHT22;14583;43.604;1.364;2022-08-11T06:06:56;28.30;99.90
26408;DHT22;14583;43.604;1.364;2022-08-11T06:09:31;28.20;99.90
26408;DHT22;14583;43.604;1.364;2022-08-11T06:12:24;28.20;99.90
26408;DHT22;14583;43.604;1.364;2022-08-11T06:14:54;28.30;99.90
26408;DHT22;14583;43.604;1.364;2022-08-11T06:17:27;28.40;99.90
26408;DHT22;14583;43.604;1.364;2022-08-11T06:20:02;28.60;99.90
26408;DHT22;14583;43.604;1.364;2022-08-11T06:22:31;28.60;99.90
26408;DHT22;14583;43.604;1.364;2022-08-11T06:24:59;28.10;99.90
26408;DHT22;14583;43.604;1.364;2022-08-11T06:27:28;28.00;99.90
26408;DHT22;14583;43.604;1.364;2022-08-11T06:29:55;28.10;99.90
26408;DHT22;14583;43.604;1.364;2022-08-11T06:32:27;28.30;99.90
26408;DHT22;14583;43.604;1.364;2022-08-11T06:44:06;28.20;99.90
26408;DHT22;14583;43.604;1.364;2022-08-11T06:46:36;28.20;99.90
26408;DHT22;14583;43.604;1.364;2022-08-11T06:49:17;27.90;99.90
26408;DHT22;14583;43.604;1.364;2022-08-11T06:52:05;28.10;99.90
26408;DHT22;14583;43.604;1.364;2022-08-11T06:54:36;28.30;99.90
26408;DHT22;14583;43.604;1.364;2022-08-11T06:57:06;27.90;99.90
26408;DHT22;14583;43.604;1.364;2022-08-11T06:59:52;28.20;99.90
26408;DHT22;14583;43.604;1.364;2022-08-11T07:02:56;28.10;99.90
26408;DHT22;14583;43.604;1.364;2022-08-11T07:05:38;28.00;99.90
26408;DHT22;14583;43.604;1.364;2022-08-11T07:08:14;28.10;99.90
26408;DHT22;14583;43.604;1.364;2022-08-11T07:13:54;27.90;99.90
26408;DHT22;14583;43.604;1.364;2022-08-11T07:16:43;28.10;99.90
26408;DHT22;14583;43.604;1.364;2022-08-11T07:19:11;28.30;99.90
26408;DHT22;14583;43.604;1.364;2022-08-11T07:21:59;28.40;99.90
26408;DHT22;14583;43.604;1.364;2022-08-11T07:24:53;28.20;99.90
26408;DHT22;14583;43.604;1.364;2022-08-11T07:27:44;28.20;99.90
26408;DHT22;14583;43.604;1.364;2022-08-11T07:30:29;28.30;99.90
26408;DHT22;14583;43.604;1.364;2022-08-11T07:32:59;28.60;99.90
26408;DHT22;14583;43.604;1.364;2022-08-11T07:35:47;28.40;99.90
26408;DHT22;14583;43.604;1.364;2022-08-11T07:38:33;28.30;99.90
26408;DHT22;14583;43.604;1.364;2022-08-11T07:41:13;28.20;99.90
26408;DHT22;14583;43.604;1.364;2022-08-11T07:43:40;28.20;99.90
26408;DHT22;14583;43.604;1.364;2022-08-11T07:46:06;28.40;99.90
26408;DHT22;14583;43.604;1.364;2022-08-11T07:48:52;28.40;99.90
26408;DHT22;14583;43.604;1.364;2022-08-11T07:51:38;28.30;99.90
26408;DHT22;14583;43.604;1.364;2022-08-11T07:54:25;28.30;99.90
26408;DHT22;14583;43.604;1.364;2022-08-11T07:56:50;28.30;99.90
26408;DHT22;14583;43.604;1.364;2022-08-11T07:59:18;28.30;99.90
26408;DHT22;14583;43.604;1.364;2022-08-11T08:02:03;28.40;99.90
26408;DHT22;14583;43.604;1.364;2022-08-11T08:04:47;28.40;99.90
26408;DHT22;14583;43.604;1.364;2022-08-11T08:07:33;28.50;99.90
26408;DHT22;14583;43.604;1.364;2022-08-11T08:10:18;28.60;99.90
26408;DHT22;14583;43.604;1.364;2022-08-11T08:13:04;28.60;99.90
26408;DHT22;14583;43.604;1.364;2022-08-11T08:15:50;28.80;99.90
26408;DHT22;14583;43.604;1.364;2022-08-11T08:18:35;28.80;99.90
26408;DHT22;14583;43.604;1.364;2022-08-11T08:21:03;29.00;99.90
26408;DHT22;14583;43.604;1.364;2022-08-11T08:23:44;29.00;99.90
26408;DHT22;14583;43.604;1.364;2022-08-11T08:26:13;29.10;99.90
26408;DHT22;14583;43.604;1.364;2022-08-11T08:29:01;29.10;99.90
26408;DHT22;14583;43.604;1.364;2022-08-11T08:31:46;29.00;99.90
26408;DHT22;14583;43.604;1.364;2022-08-11T08:34:14;29.00;99.90
26408;DHT22;14583;43.604;1.364;2022-08-11T08:36:49;29.10;99.90
26408;DHT22;14583;43.604;1.364;2022-08-11T08:39:19;29.10;99.90
26408;DHT22;14583;43.604;1.364;2022-08-11T08:41:48;29.10;99.90
26408;DHT22;14583;43.604;1.364;2022-08-11T08:44:16;29.20;99.90
26408;DHT22;14583;43.604;1.364;2022-08-11T08:46:48;29.30;99.90
26408;DHT22;14583;43.604;1.364;2022-08-11T08:49:18;29.40;99.90
26408;DHT22;14583;43.604;1.364;2022-08-11T08:51:53;29.30;99.90
26408;DHT22;14583;43.604;1.364;2022-08-11T08:54:29;29.40;99.90
26408;DHT22;14583;43.604;1.364;2022-08-11T08:56:58;29.40;99.90
26408;DHT22;14583;43.604;1.364;2022-08-11T08:59:27;29.50;99.90
26408;DHT22;14583;43.604;1.364;2022-08-11T09:02:04;29.50;99.90
26408;DHT22;14583;43.604;1.364;2022-08-11T09:04:31;29.50;99.90
26408;DHT22;14583;43.604;1.364;2022-08-11T09:06:59;29.70;99.90
26408;DHT22;14583;43.604;1.364;2022-08-11T09:09:28;29.90;99.90
26408;DHT22;14583;43.604;1.364;2022-08-11T09:11:54;29.90;99.90
26408;DHT22;14583;43.604;1.364;2022-08-11T09:14:26;29.90;99.90
26408;DHT22;14583;43.604;1.364;2022-08-11T09:17:17;29.90;99.90
26408;DHT22;14583;43.604;1.364;2022-08-11T09:19:43;30.00;99.30
26408;DHT22;14583;43.604;1.364;2022-08-11T09:22:10;30.10;98.90
26408;DHT22;14583;43.604;1.364;2022-08-11T09:24:55;30.10;98.70
26408;DHT22;14583;43.604;1.364;2022-08-11T09:27:40;30.30;97.70
26408;DHT22;14583;43.604;1.364;2022-08-11T09:30:07;30.30;97.40
26408;DHT22;14583;43.604;1.364;2022-08-11T09:32:33;30.30;96.50
26408;DHT22;14583;43.604;1.364;2022-08-11T09:35:00;30.30;96.60
26408;DHT22;14583;43.604;1.364;2022-08-11T09:37:27;30.30;97.00
26408;DHT22;14583;43.604;1.364;2022-08-11T09:40:13;30.40;96.20
26408;DHT22;14583;43.604;1.364;2022-08-11T09:43:06;30.50;95.60
26408;DHT22;14583;43.604;1.364;2022-08-11T09:45:55;30.70;95.60
26408;DHT22;14583;43.604;1.364;2022-08-11T09:48:28;30.70;94.90
26408;DHT22;14583;43.604;1.364;2022-08-11T09:50:57;30.70;94.10
26408;DHT22;14583;43.604;1.364;2022-08-11T09:53:26;30.70;93.40
26408;DHT22;14583;43.604;1.364;2022-08-11T09:55:52;30.70;94.30
26408;DHT22;14583;43.604;1.364;2022-08-11T09:58:19;30.80;94.60
26408;DHT22;14583;43.604;1.364;2022-08-11T10:00:49;31.00;93.80
26408;DHT22;14583;43.604;1.364;2022-08-11T10:03:19;31.00;92.50
26408;DHT22;14583;43.604;1.364;2022-08-11T10:05:54;30.90;93.30
26408;DHT22;14583;43.604;1.364;2022-08-11T10:08:41;31.00;93.80
26408;DHT22;14583;43.604;1.364;2022-08-11T10:11:15;31.00;93.40
26408;DHT22;14583;43.604;1.364;2022-08-11T10:13:46;31.10;93.00
26408;DHT22;14583;43.604;1.364;2022-08-11T10:16:34;31.20;91.50
26408;DHT22;14583;43.604;1.364;2022-08-11T10:19:03;31.30;91.70
26408;DHT22;14583;43.604;1.364;2022-08-11T10:24:02;31.50;90.70
26408;DHT22;14583;43.604;1.364;2022-08-11T10:26:48;31.60;90.90
26408;DHT22;14583;43.604;1.364;2022-08-11T10:29:24;31.60;89.90
26408;DHT22;14583;43.604;1.364;2022-08-11T10:32:08;31.80;90.10
26408;DHT22;14583;43.604;1.364;2022-08-11T10:34:54;31.70;88.60
26408;DHT22;14583;43.604;1.364;2022-08-11T10:37:22;31.70;89.40
26408;DHT22;14583;43.604;1.364;2022-08-11T10:39:50;31.60;88.90
26408;DHT22;14583;43.604;1.364;2022-08-11T10:42:16;31.80;88.60
26408;DHT22;14583;43.604;1.364;2022-08-11T10:45:04;31.80;88.20
26408;DHT22;14583;43.604;1.364;2022-08-11T10:47:53;31.70;88.00
26408;DHT22;14583;43.604;1.364;2022-08-11T10:50:19;31.90;88.20
26408;DHT22;14583;43.604;1.364;2022-08-11T10:53:04;32.10;87.20
26408;DHT22;14583;43.604;1.364;2022-08-11T10:55:50;32.20;85.70
26408;DHT22;14583;43.604;1.364;2022-08-11T10:58:36;32.30;85.60
26408;DHT22;14583;43.604;1.364;2022-08-11T11:01:26;32.30;85.00
26408;DHT22;14583;43.604;1.364;2022-08-11T11:03:59;32.30;84.00
26408;DHT22;14583;43.604;1.364;2022-08-11T11:09:07;32.70;82.90
26408;DHT22;14583;43.604;1.364;2022-08-11T11:11:38;32.90;82.40
26408;DHT22;14583;43.604;1.364;2022-08-11T11:14:31;32.90;82.20
26408;DHT22;14583;43.604;1.364;2022-08-11T11:17:28;33.00;82.30
26408;DHT22;14583;43.604;1.364;2022-08-11T11:20:24;32.90;82.20
26408;DHT22;14583;43.604;1.364;2022-08-11T11:22:54;32.80;80.80
26408;DHT22;14583;43.604;1.364;2022-08-11T11:30:56;32.80;78.40
26408;DHT22;14583;43.604;1.364;2022-08-11T11:33:54;32.90;78.40
26408;DHT22;14583;43.604;1.364;2022-08-11T11:36:44;33.00;78.20
26408;DHT22;14583;43.604;1.364;2022-08-11T11:39:11;33.10;78.10
26408;DHT22;14583;43.604;1.364;2022-08-11T11:41:37;33.30;77.60
26408;DHT22;14583;43.604;1.364;2022-08-11T11:44:03;33.50;76.50
26408;DHT22;14583;43.604;1.364;2022-08-11T11:46:30;33.50;76.10
26408;DHT22;14583;43.604;1.364;2022-08-11T11:48:57;33.50;75.70
26408;DHT22;14583;43.604;1.364;2022-08-11T11:51:25;33.50;75.00
26408;DHT22;14583;43.604;1.364;2022-08-11T11:53:52;33.70;74.50
26408;DHT22;14583;43.604;1.364;2022-08-11T11:56:21;33.70;73.90
26408;DHT22;14583;43.604;1.364;2022-08-11T11:58:49;33.60;73.40
26408;DHT22;14583;43.604;1.364;2022-08-11T12:01:33;33.80;73.10
26408;DHT22;14583;43.604;1.364;2022-08-11T12:04:00;33.90;73.00
26408;DHT22;14583;43.604;1.364;2022-08-11T12:06:29;34.00;72.30
26408;DHT22;14583;43.604;1.364;2022-08-11T12:08:56;33.90;72.30
26408;DHT22;14583;43.604;1.364;2022-08-11T12:11:24;33.90;72.60
26408;DHT22;14583;43.604;1.364;2022-08-11T12:14:10;33.90;70.10
26408;DHT22;14583;43.604;1.364;2022-08-11T12:16:40;33.80;71.70
26408;DHT22;14583;43.604;1.364;2022-08-11T12:19:16;34.20;71.10
26408;DHT22;14583;43.604;1.364;2022-08-11T12:21:42;34.30;71.50
26408;DHT22;14583;43.604;1.364;2022-08-11T12:24:29;34.30;71.60
26408;DHT22;14583;43.604;1.364;2022-08-11T12:27:14;34.50;70.80
26408;DHT22;14583;43.604;1.364;2022-08-11T12:30:03;34.50;70.20
26408;DHT22;14583;43.604;1.364;2022-08-11T12:32:36;34.50;69.20
26408;DHT22;14583;43.604;1.364;2022-08-11T12:35:04;34.50;68.70
26408;DHT22;14583;43.604;1.364;2022-08-11T12:37:42;34.50;68.70
26408;DHT22;14583;43.604;1.364;2022-08-11T12:40:11;34.70;68.40
26408;DHT22;14583;43.604;1.364;2022-08-11T12:43:00;34.70;68.00
26408;DHT22;14583;43.604;1.364;2022-08-11T12:45:46;34.50;67.50
26408;DHT22;14583;43.604;1.364;2022-08-11T12:51:19;34.60;68.90
26408;DHT22;14583;43.604;1.364;2022-08-11T12:54:26;34.50;68.40
26408;DHT22;14583;43.604;1.364;2022-08-11T12:57:02;34.70;67.20
26408;DHT22;14583;43.604;1.364;2022-08-11T12:59:49;34.70;67.40
26408;DHT22;14583;43.604;1.364;2022-08-11T13:02:35;34.70;67.20
26408;DHT22;14583;43.604;1.364;2022-08-11T13:05:20;34.80;66.60
26408;DHT22;14583;43.604;1.364;2022-08-11T13:07:47;34.90;66.50
26408;DHT22;14583;43.604;1.364;2022-08-11T13:10:15;34.90;66.30
26408;DHT22;14583;43.604;1.364;2022-08-11T13:13:07;35.00;66.60
26408;DHT22;14583;43.604;1.364;2022-08-11T13:15:33;35.10;66.20
26408;DHT22;14583;43.604;1.364;2022-08-11T13:18:01;35.10;66.30
26408;DHT22;14583;43.604;1.364;2022-08-11T13:20:28;35.20;66.60
26408;DHT22;14583;43.604;1.364;2022-08-11T13:22:57;35.30;67.70
26408;DHT22;14583;43.604;1.364;2022-08-11T13:25:27;35.60;65.20
26408;DHT22;14583;43.604;1.364;2022-08-11T13:27:57;35.60;62.70
26408;DHT22;14583;43.604;1.364;2022-08-11T13:30:25;35.50;64.50
26408;DHT22;14583;43.604;1.364;2022-08-11T13:33:10;35.90;65.70
26408;DHT22;14583;43.604;1.364;2022-08-11T13:35:36;36.00;64.50
26408;DHT22;14583;43.604;1.364;2022-08-11T13:38:03;36.10;63.70
26408;DHT22;14583;43.604;1.364;2022-08-11T13:40:30;36.10;63.90
26408;DHT22;14583;43.604;1.364;2022-08-11T13:42:57;36.20;63.50
26408;DHT22;14583;43.604;1.364;2022-08-11T13:45:25;36.20;63.60
26408;DHT22;14583;43.604;1.364;2022-08-11T13:47:54;36.20;63.90
26408;DHT22;14583;43.604;1.364;2022-08-11T13:50:21;36.30;64.10
26408;DHT22;14583;43.604;1.364;2022-08-11T13:53:08;36.20;62.70
26408;DHT22;14583;43.604;1.364;2022-08-11T13:55:37;36.00;62.60
26408;DHT22;14583;43.604;1.364;2022-08-11T13:58:04;36.00;62.20
26408;DHT22;14583;43.604;1.364;2022-08-11T14:00:30;36.10;60.70
26408;DHT22;14583;43.604;1.364;2022-08-11T14:02:56;36.10;61.00
26408;DHT22;14583;43.604;1.364;2022-08-11T14:05:28;36.10;59.30
26408;DHT22;14583;43.604;1.364;2022-08-11T14:08:01;36.20;58.90
26408;DHT22;14583;43.604;1.364;2022-08-11T14:10:30;36.40;58.40
26408;DHT22;14583;43.604;1.364;2022-08-11T14:13:00;36.70;58.00
26408;DHT22;14583;43.604;1.364;2022-08-11T14:15:47;36.90;57.00
26408;DHT22;14583;43.604;1.364;2022-08-11T14:18:18;36.90;57.60
26408;DHT22;14583;43.604;1.364;2022-08-11T14:20:49;36.90;57.40
26408;DHT22;14583;43.604;1.364;2022-08-11T14:23:39;36.90;57.20
26408;DHT22;14583;43.604;1.364;2022-08-11T14:26:07;37.10;56.90
26408;DHT22;14583;43.604;1.364;2022-08-11T14:29:12;37.20;55.70
26408;DHT22;14583;43.604;1.364;2022-08-11T14:31:51;37.50;56.00
26408;DHT22;14583;43.604;1.364;2022-08-11T14:34:19;37.50;54.70
26408;DHT22;14583;43.604;1.364;2022-08-11T14:36:54;37.40;53.00
26408;DHT22;14583;43.604;1.364;2022-08-11T14:39:23;37.30;53.50
26408;DHT22;14583;43.604;1.364;2022-08-11T14:41:53;37.30;54.80
26408;DHT22;14583;43.604;1.364;2022-08-11T14:44:44;37.30;56.60
26408;DHT22;14583;43.604;1.364;2022-08-11T14:47:31;37.20;56.30
26408;DHT22;14583;43.604;1.364;2022-08-11T14:49:58;37.30;55.80
26408;DHT22;14583;43.604;1.364;2022-08-11T14:52:25;37.30;54.70
26408;DHT22;14583;43.604;1.364;2022-08-11T14:54:53;37.20;54.50
26408;DHT22;14583;43.604;1.364;2022-08-11T14:57:39;37.10;54.60
26408;DHT22;14583;43.604;1.364;2022-08-11T15:00:08;37.00;54.60
26408;DHT22;14583;43.604;1.364;2022-08-11T15:02:38;37.10;55.20
26408;DHT22;14583;43.604;1.364;2022-08-11T15:05:30;37.10;54.30
26408;DHT22;14583;43.604;1.364;2022-08-11T15:07:57;36.90;54.50
26408;DHT22;14583;43.604;1.364;2022-08-11T15:10:23;36.90;54.90
26408;DHT22;14583;43.604;1.364;2022-08-11T15:12:49;36.90;54.60
26408;DHT22;14583;43.604;1.364;2022-08-11T15:15:16;36.80;54.30
26408;DHT22;14583;43.604;1.364;2022-08-11T15:18:05;36.80;54.10
26408;DHT22;14583;43.604;1.364;2022-08-11T15:20:32;36.90;54.40
26408;DHT22;14583;43.604;1.364;2022-08-11T15:23:33;37.30;55.60
26408;DHT22;14583;43.604;1.364;2022-08-11T15:29:11;37.80;56.20
26408;DHT22;14583;43.604;1.364;2022-08-11T15:31:57;37.70;55.70
26408;DHT22;14583;43.604;1.364;2022-08-11T15:34:41;37.60;54.60
26408;DHT22;14583;43.604;1.364;2022-08-11T15:37:27;37.70;54.90
26408;DHT22;14583;43.604;1.364;2022-08-11T15:40:10;37.80;55.20
26408;DHT22;14583;43.604;1.364;2022-08-11T15:43:14;37.70;54.40
26408;DHT22;14583;43.604;1.364;2022-08-11T15:46:06;37.60;54.70
26408;DHT22;14583;43.604;1.364;2022-08-11T15:51:13;37.70;55.60
26408;DHT22;14583;43.604;1.364;2022-08-11T15:53:51;38.10;55.10
26408;DHT22;14583;43.604;1.364;2022-08-11T15:56:18;38.40;53.30
26408;DHT22;14583;43.604;1.364;2022-08-11T15:58:46;38.70;52.10
26408;DHT22;14583;43.604;1.364;2022-08-11T16:01:35;39.40;52.80
26408;DHT22;14583;43.604;1.364;2022-08-11T16:04:22;42.10;52.10
26408;DHT22;14583;43.604;1.364;2022-08-11T16:09:48;50.00;44.20
26408;DHT22;14583;43.604;1.364;2022-08-11T16:12:18;52.50;42.30
26408;DHT22;14583;43.604;1.364;2022-08-11T16:14:47;53.90;41.10
26408;DHT22;14583;43.604;1.364;2022-08-11T16:17:56;54.30;40.40
26408;DHT22;14583;43.604;1.364;2022-08-11T16:20:24;55.40;38.70
26408;DHT22;14583;43.604;1.364;2022-08-11T16:22:55;55.30;37.80
26408;DHT22;14583;43.604;1.364;2022-08-11T16:25:23;55.40;37.80
26408;DHT22;14583;43.604;1.364;2022-08-11T16:28:01;53.90;36.80
26408;DHT22;14583;43.604;1.364;2022-08-11T16:30:32;52.10;38.90
26408;DHT22;14583;43.604;1.364;2022-08-11T16:33:00;53.40;38.10
26408;DHT22;14583;43.604;1.364;2022-08-11T16:35:30;52.70;38.90
26408;DHT22;14583;43.604;1.364;2022-08-11T16:38:16;52.60;39.30
26408;DHT22;14583;43.604;1.364;2022-08-11T16:41:11;53.50;38.10
26408;DHT22;14583;43.604;1.364;2022-08-11T16:43:45;53.40;36.80
26408;DHT22;14583;43.604;1.364;2022-08-11T16:46:31;50.60;37.70
26408;DHT22;14583;43.604;1.364;2022-08-11T16:49:21;49.90;39.70
26408;DHT22;14583;43.604;1.364;2022-08-11T16:51:49;48.50;39.00
26408;DHT22;14583;43.604;1.364;2022-08-11T16:54:15;46.70;40.10
26408;DHT22;14583;43.604;1.364;2022-08-11T16:56:45;46.30;40.20
26408;DHT22;14583;43.604;1.364;2022-08-11T16:59:23;45.10;41.10
26408;DHT22;14583;43.604;1.364;2022-08-11T17:01:53;45.50;42.20
26408;DHT22;14583;43.604;1.364;2022-08-11T17:07:05;45.90;41.70
26408;DHT22;14583;43.604;1.364;2022-08-11T17:10:02;46.10;41.80
26408;DHT22;14583;43.604;1.364;2022-08-11T17:12:49;46.40;41.30
26408;DHT22;14583;43.604;1.364;2022-08-11T17:15:41;46.20;41.10
26408;DHT22;14583;43.604;1.364;2022-08-11T17:18:29;44.40;41.50
26408;DHT22;14583;43.604;1.364;2022-08-11T17:21:06;43.00;42.90
26408;DHT22;14583;43.604;1.364;2022-08-11T17:23:34;41.90;46.50
26408;DHT22;14583;43.604;1.364;2022-08-11T17:28:53;40.00;44.60
26408;DHT22;14583;43.604;1.364;2022-08-11T17:31:22;39.70;45.10
26408;DHT22;14583;43.604;1.364;2022-08-11T17:34:08;39.60;45.60
26408;DHT22;14583;43.604;1.364;2022-08-11T17:36:53;39.30;47.20
26408;DHT22;14583;43.604;1.364;2022-08-11T17:39:24;39.00;48.80
26408;DHT22;14583;43.604;1.364;2022-08-11T17:41:53;38.60;48.00
26408;DHT22;14583;43.604;1.364;2022-08-11T17:44:39;38.50;48.90
26408;DHT22;14583;43.604;1.364;2022-08-11T17:47:24;38.30;50.50
26408;DHT22;14583;43.604;1.364;2022-08-11T17:50:11;38.20;50.40
26408;DHT22;14583;43.604;1.364;2022-08-11T17:52:38;38.10;53.80
26408;DHT22;14583;43.604;1.364;2022-08-11T17:55:24;37.70;50.90
26408;DHT22;14583;43.604;1.364;2022-08-11T17:58:08;37.60;53.00
26408;DHT22;14583;43.604;1.364;2022-08-11T18:00:53;37.40;52.30
26408;DHT22;14583;43.604;1.364;2022-08-11T18:03:20;37.20;54.70
26408;DHT22;14583;43.604;1.364;2022-08-11T18:05:55;37.00;54.10
26408;DHT22;14583;43.604;1.364;2022-08-11T18:08:22;36.90;55.70
26408;DHT22;14583;43.604;1.364;2022-08-11T18:11:07;36.80;55.60
26408;DHT22;14583;43.604;1.364;2022-08-11T18:13:55;36.70;56.40
26408;DHT22;14583;43.604;1.364;2022-08-11T18:16:40;36.60;56.70
26408;DHT22;14583;43.604;1.364;2022-08-11T18:19:24;36.50;57.40
26408;DHT22;14583;43.604;1.364;2022-08-11T18:22:14;36.30;58.60
26408;DHT22;14583;43.604;1.364;2022-08-11T18:25:06;36.20;59.40
26408;DHT22;14583;43.604;1.364;2022-08-11T18:27:53;36.00;61.60
26408;DHT22;14583;43.604;1.364;2022-08-11T18:30:41;35.70;61.90
26408;DHT22;14583;43.604;1.364;2022-08-11T18:33:32;35.50;64.30
26408;DHT22;14583;43.604;1.364;2022-08-11T18:36:21;35.40;62.90
26408;DHT22;14583;43.604;1.364;2022-08-11T18:39:09;35.50;63.30
26408;DHT22;14583;43.604;1.364;2022-08-11T18:41:58;35.30;63.60
26408;DHT22;14583;43.604;1.364;2022-08-11T18:44:43;35.00;64.30
26408;DHT22;14583;43.604;1.364;2022-08-11T18:47:28;35.00;65.20
26408;DHT22;14583;43.604;1.364;2022-08-11T18:50:14;35.00;65.50
26408;DHT22;14583;43.604;1.364;2022-08-11T18:53:00;34.80;67.20
26408;DHT22;14583;43.604;1.364;2022-08-11T18:55:45;34.60;68.50
26408;DHT22;14583;43.604;1.364;2022-08-11T18:58:32;34.60;68.60
26408;DHT22;14583;43.604;1.364;2022-08-11T19:01:16;34.40;69.60
26408;DHT22;14583;43.604;1.364;2022-08-11T19:04:04;34.30;69.30
26408;DHT22;14583;43.604;1.364;2022-08-11T19:06:53;34.10;72.30
26408;DHT22;14583;43.604;1.364;2022-08-11T19:09:41;33.80;73.70
26408;DHT22;14583;43.604;1.364;2022-08-11T19:12:36;33.80;74.10
26408;DHT22;14583;43.604;1.364;2022-08-11T19:15:21;33.70;75.80
26408;DHT22;14583;43.604;1.364;2022-08-11T19:18:07;33.60;72.90
26408;DHT22;14583;43.604;1.364;2022-08-11T19:20:54;33.70;75.60
26408;DHT22;14583;43.604;1.364;2022-08-11T19:23:43;33.60;75.90
26408;DHT22;14583;43.604;1.364;2022-08-11T19:26:28;33.60;76.20
26408;DHT22;14583;43.604;1.364;2022-08-11T19:29:15;33.50;76.50
26408;DHT22;14583;43.604;1.364;2022-08-11T19:32:01;33.40;78.00
26408;DHT22;14583;43.604;1.364;2022-08-11T19:34:46;33.40;77.80
26408;DHT22;14583;43.604;1.364;2022-08-11T19:37:32;33.40;77.30
26408;DHT22;14583;43.604;1.364;2022-08-11T19:40:16;33.50;80.00
26408;DHT22;14583;43.604;1.364;2022-08-11T19:43:02;33.20;79.50
26408;DHT22;14583;43.604;1.364;2022-08-11T19:45:50;33.20;79.60
26408;DHT22;14583;43.604;1.364;2022-08-11T19:48:35;33.20;80.70
26408;DHT22;14583;43.604;1.364;2022-08-11T19:51:21;33.10;81.50
26408;DHT22;14583;43.604;1.364;2022-08-11T19:54:07;33.00;81.10
26408;DHT22;14583;43.604;1.364;2022-08-11T19:56:51;33.00;83.10
26408;DHT22;14583;43.604;1.364;2022-08-11T19:59:36;32.90;82.40
26408;DHT22;14583;43.604;1.364;2022-08-11T20:02:21;32.80;83.80
26408;DHT22;14583;43.604;1.364;2022-08-11T20:05:06;32.80;84.50
26408;DHT22;14583;43.604;1.364;2022-08-11T20:07:52;32.80;83.60
26408;DHT22;14583;43.604;1.364;2022-08-11T20:10:37;32.70;83.20
26408;DHT22;14583;43.604;1.364;2022-08-11T20:13:24;32.60;84.50
26408;DHT22;14583;43.604;1.364;2022-08-11T20:16:11;32.60;84.30
26408;DHT22;14583;43.604;1.364;2022-08-11T20:18:57;32.60;84.20
26408;DHT22;14583;43.604;1.364;2022-08-11T20:21:42;32.60;85.10
26408;DHT22;14583;43.604;1.364;2022-08-11T20:24:27;32.60;87.10
26408;DHT22;14583;43.604;1.364;2022-08-11T20:27:13;32.60;86.70
26408;DHT22;14583;43.604;1.364;2022-08-11T20:30:00;32.60;85.70
26408;DHT22;14583;43.604;1.364;2022-08-11T20:32:45;32.50;87.00